createdAt,value
2023-07-30T00:00:55.498Z,20.56
2023-07-30T00:03:22.091Z,20.60
2023-07-30T00:05:48.668Z,20.46
2023-07-30T00:08:15.925Z,20.59
2023-07-30T00:10:43.197Z,20.39
2023-07-30T00:13:10.450Z,20.44
2023-07-30T00:15:36.889Z,20.57
2023-07-30T00:18:03.346Z,20.52
2023-07-30T00:20:29.797Z,20.41
2023-07-30T00:22:56.205Z,20.84
2023-07-30T00:25:22.629Z,20.71
2023-07-30T00:27:49.088Z,20.38
2023-07-30T00:30:15.535Z,20.59
2023-07-30T00:32:43.891Z,20.71
2023-07-30T00:35:12.643Z,20.90
2023-07-30T00:37:39.079Z,20.89
2023-07-30T00:42:50.362Z,20.72
2023-07-30T00:45:17.651Z,20.73
2023-07-30T00:47:44.151Z,20.78
2023-07-30T00:50:10.617Z,20.76
2023-07-30T00:52:37.036Z,20.72
2023-07-30T00:57:47.163Z,20.86
2023-07-30T01:00:13.565Z,20.75
2023-07-30T01:02:40.018Z,20.66
2023-07-30T01:05:06.532Z,20.80
2023-07-30T01:07:32.945Z,20.97
2023-07-30T01:12:43.221Z,21.00
2023-07-30T01:15:09.641Z,20.80
2023-07-30T01:17:36.079Z,20.93
2023-07-30T01:20:02.508Z,20.94
2023-07-30T01:22:28.950Z,20.65
2023-07-30T01:27:49.093Z,20.63
2023-07-30T01:30:16.398Z,20.67
2023-07-30T01:32:42.887Z,20.81
2023-07-30T01:35:09.337Z,20.87
2023-07-30T01:37:35.764Z,20.92
2023-07-30T01:42:47.037Z,20.82
2023-07-30T01:45:13.427Z,20.96
2023-07-30T01:47:39.922Z,21.00
2023-07-30T01:50:06.386Z,20.79
2023-07-30T01:52:32.789Z,20.76
2023-07-30T01:57:43.373Z,20.76
2023-07-30T02:00:10.710Z,20.58
2023-07-30T02:02:37.298Z,20.73
2023-07-30T02:05:03.847Z,20.79
2023-07-30T02:07:30.311Z,20.68
2023-07-30T02:12:40.859Z,21.05
2023-07-30T02:15:07.285Z,20.80
2023-07-30T02:17:33.720Z,20.74
2023-07-30T02:20:00.165Z,21.08
2023-07-30T02:22:26.633Z,20.85
2023-07-30T02:27:47.157Z,21.08
2023-07-30T02:30:13.569Z,20.98
2023-07-30T02:32:39.983Z,21.14
2023-07-30T02:35:06.434Z,21.06
2023-07-30T02:37:32.851Z,20.64
2023-07-30T02:42:43.027Z,21.02
2023-07-30T02:45:10.330Z,20.75
2023-07-30T02:47:36.779Z,21.00
2023-07-30T02:50:03.308Z,21.08
2023-07-30T02:52:30.598Z,20.82
2023-07-30T02:57:50.858Z,21.03
2023-07-30T03:00:18.110Z,21.13
2023-07-30T03:02:44.597Z,21.29
2023-07-30T03:05:11.937Z,21.29
2023-07-30T03:07:38.354Z,21.35
2023-07-30T03:12:48.810Z,21.17
2023-07-30T03:15:15.248Z,21.19
2023-07-30T03:17:41.742Z,21.25
2023-07-30T03:20:08.171Z,21.20
2023-07-30T03:22:34.566Z,21.13
2023-07-30T03:27:44.790Z,21.24
2023-07-30T03:30:12.054Z,21.41
2023-07-30T03:32:38.507Z,21.06
2023-07-30T03:35:04.973Z,21.37
2023-07-30T03:37:31.383Z,21.37
2023-07-30T03:42:41.654Z,21.37
2023-07-30T03:45:08.079Z,21.39
2023-07-30T03:47:34.539Z,21.37
2023-07-30T03:50:01.074Z,21.48
2023-07-30T03:52:27.475Z,21.11
2023-07-30T03:57:37.908Z,21.02
2023-07-30T04:00:04.351Z,21.27
2023-07-30T04:02:30.839Z,20.95
2023-07-30T04:04:57.272Z,21.14
2023-07-30T04:07:23.712Z,21.34
2023-07-30T04:09:50.104Z,21.09
2023-07-30T04:12:16.528Z,21.29
2023-07-30T04:14:42.957Z,21.37
2023-07-30T04:17:10.232Z,20.95
2023-07-30T04:19:36.644Z,21.13
2023-07-30T04:22:03.932Z,21.33
2023-07-30T04:24:30.388Z,21.32
2023-07-30T04:26:56.792Z,20.91
2023-07-30T04:29:23.259Z,21.25
2023-07-30T04:31:49.659Z,21.19
2023-07-30T04:34:16.930Z,21.27
2023-07-30T04:36:43.427Z,21.13
2023-07-30T04:39:10.761Z,21.22
2023-07-30T04:41:37.627Z,21.23
2023-07-30T04:44:04.307Z,21.27
2023-07-30T04:46:30.765Z,21.23
2023-07-30T04:48:57.207Z,21.23
2023-07-30T04:51:23.623Z,21.28
2023-07-30T04:53:50.048Z,21.21
2023-07-30T04:56:17.318Z,21.28
2023-07-30T04:58:43.746Z,21.35
2023-07-30T05:01:11.020Z,21.35
2023-07-30T05:03:37.500Z,21.35
2023-07-30T05:06:03.986Z,21.25
2023-07-30T05:08:30.410Z,21.34
2023-07-30T05:10:56.818Z,21.08
2023-07-30T05:13:23.229Z,20.88
2023-07-30T05:15:49.664Z,21.10
2023-07-30T05:18:16.977Z,21.28
2023-07-30T05:20:43.407Z,21.32
2023-07-30T05:23:10.819Z,21.33
2023-07-30T05:25:37.211Z,21.36
2023-07-30T05:30:57.169Z,21.52
2023-07-30T05:33:23.681Z,21.38
2023-07-30T05:35:50.083Z,21.42
2023-07-30T05:38:16.645Z,21.27
2023-07-30T05:40:43.203Z,21.35
2023-07-30T05:45:55.195Z,21.45
2023-07-30T05:48:21.647Z,21.48
2023-07-30T05:50:48.919Z,21.12
2023-07-30T05:53:16.205Z,21.29
2023-07-30T05:55:42.679Z,21.04
2023-07-30T06:00:53.899Z,21.04
2023-07-30T06:03:21.663Z,21.05
2023-07-30T06:05:49.350Z,21.25
2023-07-30T06:08:16.912Z,21.33
2023-07-30T06:10:44.282Z,20.95
2023-07-30T06:15:55.012Z,21.21
2023-07-30T06:18:22.401Z,21.39
2023-07-30T06:20:49.775Z,21.40
2023-07-30T06:23:16.383Z,21.31
2023-07-30T06:25:42.796Z,21.39
2023-07-30T06:30:53.930Z,21.31
2023-07-30T06:33:20.400Z,21.23
2023-07-30T06:35:46.806Z,21.23
2023-07-30T06:38:13.234Z,21.49
2023-07-30T06:40:39.651Z,21.51
2023-07-30T06:45:51.066Z,21.70
2023-07-30T06:48:18.338Z,21.12
2023-07-30T06:50:44.782Z,21.24
2023-07-30T06:53:11.253Z,20.99
2023-07-30T06:55:37.665Z,21.20
2023-07-30T07:00:48.470Z,21.02
2023-07-30T07:03:15.000Z,21.00
2023-07-30T07:05:43.633Z,21.32
2023-07-30T07:08:12.588Z,21.15
2023-07-30T07:10:39.962Z,21.25
2023-07-30T07:15:51.363Z,20.99
2023-07-30T07:18:19.717Z,20.60
2023-07-30T07:20:46.200Z,20.73
2023-07-30T07:23:14.561Z,21.01
2023-07-30T07:25:41.047Z,21.28
2023-07-30T07:30:52.903Z,20.86
2023-07-30T07:33:19.466Z,20.94
2023-07-30T07:35:46.002Z,21.25
2023-07-30T07:38:13.482Z,21.19
2023-07-30T07:40:40.963Z,21.32
2023-07-30T07:45:53.264Z,21.51
2023-07-30T07:48:20.818Z,21.66
2023-07-30T07:50:47.344Z,21.63
2023-07-30T07:53:14.675Z,21.50
2023-07-30T07:55:43.919Z,21.71
2023-07-30T08:00:57.937Z,21.80
2023-07-30T08:03:24.381Z,21.82
2023-07-30T08:05:53.643Z,21.82
2023-07-30T08:08:20.104Z,21.82
2023-07-30T08:10:47.402Z,21.82
2023-07-30T08:15:58.212Z,21.78
2023-07-30T08:18:25.616Z,21.73
2023-07-30T08:20:52.930Z,21.67
2023-07-30T08:23:19.443Z,21.85
2023-07-30T08:25:45.929Z,21.97
2023-07-30T08:30:57.809Z,21.94
2023-07-30T08:33:24.228Z,22.07
2023-07-30T08:35:50.642Z,21.94
2023-07-30T08:38:19.992Z,21.97
2023-07-30T08:40:46.426Z,22.13
2023-07-30T08:45:57.847Z,22.14
2023-07-30T08:48:24.259Z,22.07
2023-07-30T08:50:51.596Z,22.03
2023-07-30T08:53:18.916Z,22.05
2023-07-30T08:55:45.330Z,22.03
2023-07-30T09:00:57.501Z,21.96
2023-07-30T09:03:23.924Z,21.99
2023-07-30T09:05:51.248Z,22.08
2023-07-30T09:08:18.594Z,21.93
2023-07-30T09:10:45.070Z,22.02
2023-07-30T09:15:56.166Z,22.03
2023-07-30T09:18:22.605Z,22.03
2023-07-30T09:20:49.110Z,21.97
2023-07-30T09:23:15.562Z,21.89
2023-07-30T09:25:42.101Z,21.92
2023-07-30T09:28:08.606Z,21.97
2023-07-30T09:30:35.134Z,21.91
2023-07-30T09:33:01.873Z,22.09
2023-07-30T09:35:28.416Z,22.08
2023-07-30T09:37:54.887Z,22.12
2023-07-30T09:40:21.371Z,22.08
2023-07-30T09:42:49.854Z,22.11
2023-07-30T09:45:17.615Z,22.14
2023-07-30T09:47:44.075Z,22.22
2023-07-30T09:50:10.572Z,22.29
2023-07-30T09:52:37.841Z,22.29
2023-07-30T09:55:04.314Z,22.35
2023-07-30T09:57:30.734Z,22.40
2023-07-30T09:59:57.206Z,22.45
2023-07-30T10:02:24.656Z,22.50
2023-07-30T10:04:51.207Z,22.50
2023-07-30T10:07:18.579Z,22.35
2023-07-30T10:09:45.037Z,22.35
2023-07-30T10:12:12.326Z,22.38
2023-07-30T10:14:38.736Z,22.48
2023-07-30T10:17:05.213Z,22.43
2023-07-30T10:19:31.660Z,22.58
2023-07-30T10:21:58.048Z,22.58
2023-07-30T10:24:24.508Z,22.46
2023-07-30T10:26:50.933Z,22.64
2023-07-30T10:29:18.257Z,22.72
2023-07-30T10:31:45.587Z,22.67
2023-07-30T10:34:12.872Z,22.59
2023-07-30T10:36:39.294Z,22.55
2023-07-30T10:39:05.722Z,22.62
2023-07-30T10:41:32.147Z,22.59
2023-07-30T10:43:58.594Z,22.71
2023-07-30T10:49:09.692Z,22.64
2023-07-30T10:51:36.128Z,22.60
2023-07-30T10:54:05.407Z,22.59
2023-07-30T10:56:31.824Z,22.56
2023-07-30T10:58:58.264Z,22.65
2023-07-30T11:04:10.403Z,22.54
2023-07-30T11:06:36.946Z,22.59
2023-07-30T11:09:03.387Z,22.63
2023-07-30T11:11:29.828Z,22.54
2023-07-30T11:13:56.237Z,22.55
2023-07-30T11:19:06.613Z,22.65
2023-07-30T11:21:34.997Z,22.82
2023-07-30T11:24:01.475Z,22.76
2023-07-30T11:26:28.018Z,23.02
2023-07-30T11:28:54.502Z,23.01
2023-07-30T11:34:07.822Z,22.71
2023-07-30T11:36:34.208Z,22.73
2023-07-30T11:39:02.567Z,22.69
2023-07-30T11:41:29.113Z,23.06
2023-07-30T11:43:57.432Z,22.81
2023-07-30T11:49:08.460Z,22.73
2023-07-30T11:51:35.740Z,22.73
2023-07-30T11:54:02.192Z,22.72
2023-07-30T11:56:29.535Z,22.71
2023-07-30T11:58:55.981Z,22.74
2023-07-30T12:04:06.547Z,22.76
2023-07-30T12:06:35.846Z,22.89
2023-07-30T12:09:04.231Z,22.92
2023-07-30T12:11:30.707Z,22.92
2023-07-30T12:13:59.901Z,22.84
2023-07-30T12:19:11.348Z,22.72
2023-07-30T12:21:39.804Z,22.68
2023-07-30T12:24:07.256Z,22.71
2023-07-30T12:26:33.696Z,22.76
2023-07-30T12:29:01.002Z,22.68
2023-07-30T12:34:11.293Z,22.77
2023-07-30T12:36:38.587Z,22.83
2023-07-30T12:39:05.056Z,22.87
2023-07-30T12:41:31.512Z,22.82
2023-07-30T12:43:58.800Z,22.87
2023-07-30T12:49:09.961Z,23.02
2023-07-30T12:51:37.660Z,22.88
2023-07-30T12:54:07.142Z,22.81
2023-07-30T12:56:35.108Z,22.93
2023-07-30T12:59:03.661Z,22.89
2023-07-30T13:04:15.021Z,22.90
2023-07-30T13:06:41.491Z,22.95
2023-07-30T13:09:07.978Z,22.91
2023-07-30T13:11:34.418Z,22.96
2023-07-30T13:14:02.864Z,22.92
2023-07-30T13:19:16.788Z,22.97
2023-07-30T13:21:43.228Z,22.89
2023-07-30T13:24:10.537Z,22.91
2023-07-30T13:26:36.980Z,22.92
2023-07-30T13:29:03.394Z,22.90
2023-07-30T13:34:13.873Z,22.96
2023-07-30T13:36:41.155Z,23.09
2023-07-30T13:39:07.576Z,22.98
2023-07-30T13:41:34.140Z,22.92
2023-07-30T13:44:01.464Z,22.92
2023-07-30T13:49:13.682Z,22.93
2023-07-30T13:51:40.461Z,22.91
2023-07-30T13:54:09.162Z,22.87
2023-07-30T13:56:35.673Z,22.84
2023-07-30T13:59:02.125Z,22.88
2023-07-30T14:04:13.486Z,22.95
2023-07-30T14:06:40.885Z,22.92
2023-07-30T14:09:07.384Z,22.94
2023-07-30T14:11:36.865Z,22.93
2023-07-30T14:14:03.454Z,22.86
2023-07-30T14:19:18.977Z,22.86
2023-07-30T14:21:46.281Z,22.84
2023-07-30T14:24:12.741Z,22.85
2023-07-30T14:26:41.933Z,22.86
2023-07-30T14:29:08.398Z,22.83
2023-07-30T14:34:19.574Z,22.84
2023-07-30T14:36:45.997Z,22.82
2023-07-30T14:39:14.490Z,22.82
2023-07-30T14:41:41.231Z,22.86
2023-07-30T14:44:07.866Z,22.83
2023-07-30T14:49:18.356Z,22.82
2023-07-30T14:51:44.849Z,22.87
2023-07-30T14:54:11.400Z,23.01
2023-07-30T14:56:39.067Z,23.03
2023-07-30T14:59:05.646Z,23.08
2023-07-30T15:01:32.138Z,23.10
2023-07-30T15:03:58.684Z,23.12
2023-07-30T15:06:25.177Z,23.15
2023-07-30T15:08:55.172Z,23.14
2023-07-30T15:11:21.710Z,23.13
2023-07-30T15:13:50.068Z,23.11
2023-07-30T15:16:17.370Z,23.04
2023-07-30T15:18:43.828Z,23.06
2023-07-30T15:21:13.828Z,23.07
2023-07-30T15:23:41.068Z,23.13
2023-07-30T15:26:08.469Z,23.24
2023-07-30T15:28:35.046Z,23.23
2023-07-30T15:31:03.467Z,23.23
2023-07-30T15:33:36.124Z,23.13
2023-07-30T15:36:04.038Z,23.13
2023-07-30T15:38:30.621Z,23.12
2023-07-30T15:40:57.069Z,23.18
2023-07-30T15:43:23.595Z,23.11
2023-07-30T15:45:50.064Z,23.16
2023-07-30T15:48:16.614Z,23.23
2023-07-30T15:50:43.099Z,23.22
2023-07-30T15:53:10.395Z,23.26
2023-07-30T15:55:37.705Z,23.28
2023-07-30T15:58:04.421Z,23.23
2023-07-30T16:00:30.839Z,23.12
2023-07-30T16:02:57.381Z,23.17
2023-07-30T16:05:24.705Z,23.25
2023-07-30T16:07:52.044Z,23.23
2023-07-30T16:10:19.603Z,23.23
2023-07-30T16:12:46.935Z,23.24
2023-07-30T16:15:13.375Z,23.26
2023-07-30T16:17:39.908Z,23.21
2023-07-30T16:20:06.604Z,23.22
2023-07-30T16:22:33.036Z,23.23
2023-07-30T16:25:00.346Z,23.22
2023-07-30T16:27:26.814Z,23.28
2023-07-30T16:29:53.271Z,23.18
2023-07-30T16:32:19.732Z,23.16
2023-07-30T16:37:30.011Z,23.23
2023-07-30T16:39:56.474Z,23.17
2023-07-30T16:42:22.967Z,23.21
2023-07-30T16:44:49.545Z,23.12
2023-07-30T16:47:17.115Z,23.20
2023-07-30T16:52:27.765Z,23.32
2023-07-30T16:54:54.322Z,23.17
2023-07-30T16:57:21.856Z,23.14
2023-07-30T16:59:49.370Z,23.16
2023-07-30T17:02:16.792Z,23.19
2023-07-30T17:07:27.234Z,23.20
2023-07-30T17:09:55.598Z,23.18
2023-07-30T17:12:22.920Z,23.17
2023-07-30T17:14:50.266Z,23.19
2023-07-30T17:17:16.984Z,23.24
2023-07-30T17:22:28.885Z,23.21
2023-07-30T17:24:55.314Z,23.22
2023-07-30T17:27:21.745Z,23.14
2023-07-30T17:29:48.165Z,23.19
2023-07-30T17:32:14.691Z,23.21
2023-07-30T17:37:25.191Z,23.11
2023-07-30T17:39:51.601Z,23.13
2023-07-30T17:42:18.915Z,23.15
2023-07-30T17:44:46.213Z,23.13
2023-07-30T17:47:13.494Z,23.17
2023-07-30T17:52:24.607Z,23.10
2023-07-30T17:54:51.083Z,23.14
2023-07-30T17:57:18.495Z,23.22
2023-07-30T17:59:46.847Z,23.24
2023-07-30T18:02:13.601Z,23.18
2023-07-30T18:07:24.038Z,23.26
2023-07-30T18:09:50.485Z,23.24
2023-07-30T18:12:17.754Z,23.24
2023-07-30T18:14:45.065Z,23.24
2023-07-30T18:17:11.578Z,23.24
2023-07-30T18:22:23.034Z,23.26
2023-07-30T18:24:50.397Z,23.27
2023-07-30T18:27:17.901Z,23.28
2023-07-30T18:29:45.344Z,23.26
2023-07-30T18:32:11.820Z,23.23
2023-07-30T18:37:22.174Z,23.23
2023-07-30T18:39:48.664Z,23.18
2023-07-30T18:42:15.217Z,23.16
2023-07-30T18:44:41.663Z,23.19
2023-07-30T18:47:08.089Z,23.17
2023-07-30T18:52:22.221Z,23.12
2023-07-30T18:54:48.631Z,23.13
2023-07-30T18:57:15.932Z,23.03
2023-07-30T18:59:42.453Z,23.06
2023-07-30T19:02:09.850Z,23.00
2023-07-30T19:07:21.646Z,23.07
2023-07-30T19:09:48.920Z,22.95
2023-07-30T19:12:17.472Z,22.97
2023-07-30T19:14:43.877Z,22.84
2023-07-30T19:17:10.380Z,22.77
2023-07-30T19:22:21.895Z,22.68
2023-07-30T19:24:48.464Z,22.69
2023-07-30T19:27:14.921Z,22.60
2023-07-30T19:29:41.421Z,22.54
2023-07-30T19:32:07.986Z,22.61
2023-07-30T19:34:34.529Z,22.70
2023-07-30T19:37:01.070Z,22.74
2023-07-30T19:39:31.146Z,22.82
2023-07-30T19:41:57.709Z,22.92
2023-07-30T19:44:24.200Z,22.91
2023-07-30T19:46:50.787Z,22.93
2023-07-30T19:49:17.707Z,22.89
2023-07-30T19:51:44.200Z,22.90
2023-07-30T19:54:10.738Z,22.73
2023-07-30T19:56:38.530Z,22.73
2023-07-30T19:59:05.221Z,22.62
2023-07-30T20:01:31.775Z,22.52
2023-07-30T20:03:58.269Z,22.56
2023-07-30T20:06:25.623Z,22.66
2023-07-30T20:08:52.156Z,22.66
2023-07-30T20:11:18.711Z,22.68
2023-07-30T20:13:45.194Z,22.60
2023-07-30T20:16:11.814Z,22.39
2023-07-30T20:18:39.196Z,22.48
2023-07-30T20:21:05.683Z,22.38
2023-07-30T20:23:32.207Z,22.22
2023-07-30T20:25:58.809Z,22.24
2023-07-30T20:28:25.412Z,22.09
2023-07-30T20:30:52.755Z,22.07
2023-07-30T20:33:20.057Z,22.17
2023-07-30T20:35:46.612Z,22.02
2023-07-30T20:38:13.103Z,22.06
2023-07-30T20:40:39.668Z,22.15
2023-07-30T20:43:08.073Z,22.13
2023-07-30T20:45:35.383Z,22.12
2023-07-30T20:48:02.811Z,22.15
2023-07-30T20:50:29.489Z,22.39
2023-07-30T20:52:56.091Z,22.55
2023-07-30T20:55:22.561Z,22.44
2023-07-30T20:57:50.919Z,22.48
2023-07-30T21:00:17.379Z,22.37
2023-07-30T21:02:44.832Z,22.27
2023-07-30T21:05:13.244Z,22.50
2023-07-30T21:07:40.517Z,22.50
2023-07-30T21:10:07.052Z,22.54
2023-07-30T21:12:33.606Z,22.63
2023-07-30T21:15:00.980Z,22.56
2023-07-30T21:17:29.028Z,22.54
2023-07-30T21:19:57.377Z,22.42
2023-07-30T21:22:25.759Z,22.44
2023-07-30T21:24:52.193Z,22.55
2023-07-30T21:27:18.760Z,22.59
2023-07-30T21:29:46.047Z,22.58
2023-07-30T21:32:12.710Z,22.62
2023-07-30T21:34:39.367Z,22.43
2023-07-30T21:37:08.641Z,22.49
2023-07-30T21:39:35.162Z,22.53
2023-07-30T21:42:01.571Z,22.36
2023-07-30T21:44:28.033Z,22.48
2023-07-30T21:46:54.581Z,22.56
2023-07-30T21:49:22.954Z,22.54
2023-07-30T21:51:49.356Z,22.49
2023-07-30T21:54:15.793Z,22.52
2023-07-30T21:56:42.274Z,22.51
2023-07-30T21:59:09.534Z,22.46
2023-07-30T22:01:36.177Z,22.48
2023-07-30T22:04:02.670Z,22.45
2023-07-30T22:06:29.982Z,22.48
2023-07-30T22:08:56.410Z,22.48
2023-07-30T22:11:25.611Z,22.50
2023-07-30T22:13:54.024Z,22.47
2023-07-30T22:16:21.366Z,22.50
2023-07-30T22:18:47.838Z,22.39
2023-07-30T22:21:15.109Z,22.40
2023-07-30T22:23:41.529Z,22.40
2023-07-30T22:26:07.950Z,22.42
2023-07-30T22:28:34.387Z,22.35
2023-07-30T22:31:00.919Z,22.32
2023-07-30T22:33:27.382Z,22.36
2023-07-30T22:35:53.804Z,22.36
2023-07-30T22:38:21.067Z,22.21
2023-07-30T22:40:48.339Z,22.37
2023-07-30T22:43:15.617Z,22.33
2023-07-30T22:45:42.025Z,22.34
2023-07-30T22:48:08.402Z,22.29
2023-07-30T22:50:34.828Z,22.23
2023-07-30T22:53:04.021Z,22.29
2023-07-30T22:55:30.423Z,22.25
2023-07-30T22:57:56.844Z,22.22
2023-07-30T23:00:23.270Z,22.18
2023-07-30T23:02:49.767Z,22.20
2023-07-30T23:05:16.234Z,22.22
2023-07-30T23:07:42.644Z,22.23
2023-07-30T23:10:09.061Z,22.18
2023-07-30T23:12:35.508Z,22.12
2023-07-30T23:15:01.910Z,22.16
2023-07-30T23:17:28.434Z,22.16
2023-07-30T23:19:54.912Z,22.15
2023-07-30T23:22:21.364Z,22.21
2023-07-30T23:24:47.777Z,22.01
2023-07-30T23:27:14.208Z,22.18
2023-07-30T23:29:40.621Z,22.02
2023-07-30T23:32:07.038Z,22.09
2023-07-30T23:34:33.458Z,22.12
2023-07-30T23:36:59.870Z,22.06
2023-07-30T23:39:26.292Z,22.09
2023-07-30T23:41:52.717Z,22.04
2023-07-30T23:44:19.127Z,22.10
2023-07-30T23:46:46.382Z,22.10
2023-07-30T23:49:12.793Z,22.09
2023-07-30T23:51:41.919Z,21.94
2023-07-30T23:54:08.315Z,22.03
2023-07-30T23:56:34.783Z,22.01
2023-07-30T23:59:01.240Z,22.15
